Time;durP1;ratioP1;P1;durP2;ratioP2;P2;SDS_P1;SDS_P2;PMS_P1;PMS_P2;Temp;Humidity;BMP_temperature;BMP_pressure;BME280_temperature;BME280_humidity;BME280_pressure;Samples;Min_cycle;Max_cycle;Signal;HPM_P1;HPM_P2
2021/08/05 00:00:39;;;;;;;3.10;2.03;;;;;;;;;;5034899;28;20451;-67
2021/08/05 00:03:05;;;;;;;3.38;2.47;;;;;;;;;;5034358;28;20505;-67
2021/08/05 00:05:31;;;;;;;3.13;2.28;;;;;;;;;;5034562;28;20033;-68
2021/08/05 00:07:57;;;;;;;2.60;2.20;;;;;;;;;;5034668;28;20104;-67
2021/08/05 00:10:24;;;;;;;3.83;2.20;;;;;;;;;;5016845;28;20431;-67
2021/08/05 00:12:50;;;;;;;3.30;2.88;;;;;;;;;;5034574;28;20034;-67
2021/08/05 00:15:16;;;;;;;4.50;2.58;;;;;;;;;;5034523;28;20033;-67
2021/08/05 00:17:42;;;;;;;4.88;2.03;;;;;;;;;;5034528;28;20388;-67
2021/08/05 00:20:08;;;;;;;4.00;2.40;;;;;;;;;;5034411;28;20044;-68
2021/08/05 00:22:34;;;;;;;4.97;2.65;;;;;;;;;;5034342;28;20076;-67
2021/08/05 00:25:01;;;;;;;3.38;1.98;;;;;;;;;;5034340;28;20399;-67
2021/08/05 00:27:27;;;;;;;3.25;2.30;;;;;;;;;;5034097;28;20029;-68
2021/08/05 00:29:53;;;;;;;3.53;2.30;;;;;;;;;;5034198;28;20025;-67
2021/08/05 00:32:19;;;;;;;4.38;2.90;;;;;;;;;;5034251;28;20516;-69
2021/08/05 00:34:45;;;;;;;2.78;2.10;;;;;;;;;;5034268;28;20404;-68
2021/08/05 00:37:11;;;;;;;2.83;2.30;;;;;;;;;;5034096;28;20415;-68
2021/08/05 00:39:37;;;;;;;2.80;2.28;;;;;;;;;;5034129;28;20021;-68
2021/08/05 00:42:04;;;;;;;3.40;2.60;;;;;;;;;;5033584;28;20356;-68
2021/08/05 00:44:30;;;;;;;4.70;2.40;;;;;;;;;;5033918;28;20030;-67
2021/08/05 00:46:56;;;;;;;2.92;2.33;;;;;;;;;;5033783;28;20435;-67
2021/08/05 00:49:23;;;;;;;3.85;2.45;;;;;;;;;;5033923;28;20075;-67
2021/08/05 00:51:49;;;;;;;3.47;2.25;;;;;;;;;;5033842;28;20060;-67
2021/08/05 00:54:16;;;;;;;2.75;2.40;;;;;;;;;;5034098;28;20111;-67
2021/08/05 00:56:42;;;;;;;3.97;2.50;;;;;;;;;;5033662;28;20124;-67
2021/08/05 00:59:08;;;;;;;4.07;2.40;;;;;;;;;;5033760;28;20051;-66
2021/08/05 01:01:40;;;;;;;3.55;2.45;;;;;;;;;;5033581;28;20509;-68
2021/08/05 01:04:08;;;;;;;3.15;2.85;;;;;;;;;;5033467;28;20092;-67
2021/08/05 01:06:34;;;;;;;3.30;2.75;;;;;;;;;;5033435;28;20022;-68
2021/08/05 01:09:04;;;;;;;4.10;2.45;;;;;;;;;;5033275;28;20033;-68
2021/08/05 01:11:35;;;;;;;3.35;2.40;;;;;;;;;;5033355;28;20029;-67
2021/08/05 01:14:04;;;;;;;3.40;2.58;;;;;;;;;;5033773;28;20021;-67
2021/08/05 01:16:31;;;;;;;5.85;2.58;;;;;;;;;;5033418;28;20049;-67
2021/08/05 01:19:07;;;;;;;5.30;2.55;;;;;;;;;;5033243;28;20025;-68
2021/08/05 01:21:40;;;;;;;2.92;2.20;;;;;;;;;;5033333;28;20036;-68
2021/08/05 01:24:07;;;;;;;4.60;2.40;;;;;;;;;;5033107;28;20029;-68
2021/08/05 01:26:48;;;;;;;2.95;2.20;;;;;;;;;;5033294;28;20033;-67
2021/08/05 01:29:15;;;;;;;3.35;2.30;;;;;;;;;;5033119;28;20029;-67
2021/08/05 01:31:45;;;;;;;2.72;2.15;;;;;;;;;;5033423;28;20357;-68
2021/08/05 01:34:15;;;;;;;3.03;2.42;;;;;;;;;;5015382;28;20029;-67
2021/08/05 01:36:46;;;;;;;3.17;2.28;;;;;;;;;;5033088;28;20029;-67
2021/08/05 01:39:12;;;;;;;3.90;2.70;;;;;;;;;;5032778;28;20537;-67
2021/08/05 01:41:39;;;;;;;2.90;2.42;;;;;;;;;;5032942;28;20025;-68
2021/08/05 01:44:07;;;;;;;3.28;2.83;;;;;;;;;;5032779;28;20041;-67
2021/08/05 01:46:33;;;;;;;3.33;2.40;;;;;;;;;;5032918;28;20030;-69
2021/08/05 01:49:00;;;;;;;3.67;2.50;;;;;;;;;;5032977;28;20026;-68
2021/08/05 01:51:27;;;;;;;4.43;3.00;;;;;;;;;;5032812;28;20100;-68
2021/08/05 01:53:53;;;;;;;3.10;2.40;;;;;;;;;;5032113;28;20025;-67
2021/08/05 01:56:23;;;;;;;2.63;2.20;;;;;;;;;;5032764;28;20022;-69
2021/08/05 01:58:49;;;;;;;4.60;2.40;;;;;;;;;;5032091;28;20025;-67
2021/08/05 02:01:19;;;;;;;2.80;2.10;;;;;;;;;;5025201;28;20036;-68
2021/08/05 02:03:58;;;;;;;4.00;2.67;;;;;;;;;;5032251;28;20049;-68
2021/08/05 02:06:26;;;;;;;3.70;2.20;;;;;;;;;;5032637;28;20475;-68
2021/08/05 02:08:54;;;;;;;3.95;2.70;;;;;;;;;;5032528;28;20535;-68
2021/08/05 02:11:24;;;;;;;2.75;2.30;;;;;;;;;;5032547;28;20033;-68
2021/08/05 02:13:51;;;;;;;3.08;2.28;;;;;;;;;;5032616;28;20025;-68
2021/08/05 02:16:18;;;;;;;3.40;2.40;;;;;;;;;;5032581;28;20491;-68
2021/08/05 02:18:45;;;;;;;3.17;2.72;;;;;;;;;;5032520;28;20387;-68
2021/08/05 02:21:13;;;;;;;4.30;2.10;;;;;;;;;;5032454;28;20072;-68
2021/08/05 02:23:40;;;;;;;3.17;2.20;;;;;;;;;;5032346;28;20395;-68
2021/08/05 02:26:06;;;;;;;3.70;2.50;;;;;;;;;;5032272;28;20029;-67
2021/08/05 02:28:32;;;;;;;2.97;2.50;;;;;;;;;;5032497;28;20033;-67
2021/08/05 02:30:59;;;;;;;3.60;2.25;;;;;;;;;;5032339;28;20076;-67
2021/08/05 02:33:26;;;;;;;2.97;2.40;;;;;;;;;;5032299;28;20075;-67
2021/08/05 02:35:52;;;;;;;3.92;2.35;;;;;;;;;;5032174;28;20030;-67
2021/08/05 02:38:18;;;;;;;3.30;2.38;;;;;;;;;;5032333;28;20438;-67
2021/08/05 02:40:47;;;;;;;3.58;2.22;;;;;;;;;;5032115;28;20029;-68
2021/08/05 02:43:13;;;;;;;3.15;2.20;;;;;;;;;;5019906;28;20480;-67
2021/08/05 02:45:40;;;;;;;3.17;2.45;;;;;;;;;;5012573;28;20117;-68
2021/08/05 02:48:08;;;;;;;5.53;2.40;;;;;;;;;;5012452;28;20033;-68
2021/08/05 02:50:34;;;;;;;5.05;2.28;;;;;;;;;;5012219;28;20018;-67
2021/08/05 02:53:01;;;;;;;5.63;2.80;;;;;;;;;;5012454;28;20036;-67
2021/08/05 02:55:28;;;;;;;2.85;2.30;;;;;;;;;;5012460;28;20030;-68
2021/08/05 02:57:54;;;;;;;3.75;2.28;;;;;;;;;;5012395;28;20018;-68
2021/08/05 03:00:21;;;;;;;4.30;2.42;;;;;;;;;;5012299;28;20030;-68
2021/08/05 03:02:47;;;;;;;6.10;2.70;;;;;;;;;;5029147;28;20064;-68
2021/08/05 03:05:14;;;;;;;2.97;2.20;;;;;;;;;;5032274;28;20025;-68
2021/08/05 03:07:40;;;;;;;3.17;2.40;;;;;;;;;;5035779;28;20025;-67
2021/08/05 03:10:07;;;;;;;4.38;2.13;;;;;;;;;;5035769;28;20053;-68
2021/08/05 03:12:33;;;;;;;2.53;2.03;;;;;;;;;;5035799;28;20097;-67
2021/08/05 03:14:59;;;;;;;4.93;2.25;;;;;;;;;;5017938;28;20030;-67
2021/08/05 03:17:25;;;;;;;3.42;2.00;;;;;;;;;;5035738;28;20499;-68
2021/08/05 03:19:52;;;;;;;2.30;2.10;;;;;;;;;;5035621;28;20030;-67
2021/08/05 03:22:18;;;;;;;3.50;2.00;;;;;;;;;;5035569;28;20386;-68
2021/08/05 03:24:44;;;;;;;3.13;2.13;;;;;;;;;;5035449;28;20052;-67
2021/08/05 03:27:10;;;;;;;4.63;2.22;;;;;;;;;;5035512;28;20037;-68
2021/08/05 03:29:36;;;;;;;3.03;2.00;;;;;;;;;;5035364;28;20047;-68
2021/08/05 03:32:03;;;;;;;4.90;2.42;;;;;;;;;;5035443;28;20484;-67
2021/08/05 03:34:29;;;;;;;2.85;2.05;;;;;;;;;;5035227;28;20029;-68
2021/08/05 03:36:55;;;;;;;2.97;2.15;;;;;;;;;;5035459;28;20048;-68
2021/08/05 03:39:21;;;;;;;3.90;2.00;;;;;;;;;;5035341;28;20048;-68
2021/08/05 03:41:48;;;;;;;6.70;2.30;;;;;;;;;;5035202;28;20026;-68
2021/08/05 03:44:14;;;;;;;5.38;2.22;;;;;;;;;;5035234;28;20021;-67
2021/08/05 03:46:40;;;;;;;3.30;2.40;;;;;;;;;;5035121;28;20030;-67
2021/08/05 03:49:07;;;;;;;2.42;2.10;;;;;;;;;;5034861;28;20467;-67
2021/08/05 03:51:33;;;;;;;4.95;2.65;;;;;;;;;;5034964;28;20056;-67
2021/08/05 03:53:59;;;;;;;3.88;2.60;;;;;;;;;;5034945;28;20553;-67
2021/08/05 03:56:25;;;;;;;4.07;2.50;;;;;;;;;;5034966;28;20022;-68
2021/08/05 03:58:51;;;;;;;3.10;2.17;;;;;;;;;;5034839;28;20034;-69
2021/08/05 04:01:17;;;;;;;3.08;2.70;;;;;;;;;;5034809;28;20101;-69
2021/08/05 04:03:44;;;;;;;3.33;2.50;;;;;;;;;;5016305;28;20049;-68
2021/08/05 04:06:10;;;;;;;4.38;2.83;;;;;;;;;;5016835;28;20444;-68
2021/08/05 04:08:37;;;;;;;3.15;2.63;;;;;;;;;;5034635;28;20075;-68
2021/08/05 04:11:03;;;;;;;4.90;3.03;;;;;;;;;;5034478;28;20072;-68
2021/08/05 04:13:29;;;;;;;4.45;2.50;;;;;;;;;;5034661;28;20044;-69
2021/08/05 04:15:55;;;;;;;3.05;2.33;;;;;;;;;;5034670;28;20081;-68
2021/08/05 04:18:21;;;;;;;3.75;2.50;;;;;;;;;;5033706;28;20033;-68
2021/08/05 04:20:47;;;;;;;5.70;2.70;;;;;;;;;;5034452;28;20081;-69
2021/08/05 04:23:13;;;;;;;5.50;2.40;;;;;;;;;;5034424;28;20052;-69
2021/08/05 04:25:39;;;;;;;3.33;2.42;;;;;;;;;;5034396;28;20030;-67
2021/08/05 04:28:06;;;;;;;6.60;2.47;;;;;;;;;;5034298;28;20025;-68
2021/08/05 04:30:32;;;;;;;4.53;2.47;;;;;;;;;;5034148;28;20029;-68
2021/08/05 04:32:58;;;;;;;3.17;2.45;;;;;;;;;;5034038;28;20025;-69
2021/08/05 04:35:24;;;;;;;4.15;2.50;;;;;;;;;;5034105;28;20032;-67
2021/08/05 04:37:52;;;;;;;4.70;2.50;;;;;;;;;;5034096;28;20075;-68
2021/08/05 04:40:18;;;;;;;7.68;3.58;;;;;;;;;;5034132;28;20022;-68
2021/08/05 04:42:44;;;;;;;2.92;2.40;;;;;;;;;;5016304;28;20468;-67
2021/08/05 04:45:11;;;;;;;4.68;2.30;;;;;;;;;;5034118;28;20037;-67
2021/08/05 04:47:57;;;;;;;5.57;3.00;;;;;;;;;;5033766;28;20025;-68
2021/08/05 04:50:24;;;;;;;4.20;2.60;;;;;;;;;;5034050;28;20555;-68
2021/08/05 04:52:50;;;;;;;3.55;2.70;;;;;;;;;;5033890;28;20021;-68
2021/08/05 04:55:16;;;;;;;4.25;2.70;;;;;;;;;;5033872;28;20017;-67
2021/08/05 04:58:03;;;;;;;3.03;2.15;;;;;;;;;;5033863;28;20502;-67
2021/08/05 05:00:31;;;;;;;2.78;2.17;;;;;;;;;;5033740;28;20472;-68
2021/08/05 05:02:57;;;;;;;2.45;2.25;;;;;;;;;;5033239;28;20049;-67
2021/08/05 05:05:24;;;;;;;3.15;2.45;;;;;;;;;;5029088;28;20479;-68
2021/08/05 05:07:50;;;;;;;3.90;2.25;;;;;;;;;;5013803;28;20516;-67
2021/08/05 05:10:17;;;;;;;3.13;2.13;;;;;;;;;;5013803;28;20021;-67
2021/08/05 05:12:43;;;;;;;3.17;2.00;;;;;;;;;;5013613;28;20018;-68
2021/08/05 05:15:11;;;;;;;3.83;2.47;;;;;;;;;;5013647;28;20026;-67
2021/08/05 05:17:38;;;;;;;5.30;2.40;;;;;;;;;;5013480;28;20053;-68
2021/08/05 05:20:05;;;;;;;3.33;2.33;;;;;;;;;;5013647;28;20437;-68
2021/08/05 05:22:31;;;;;;;5.18;2.22;;;;;;;;;;5013618;28;20040;-67
2021/08/05 05:25:00;;;;;;;2.70;2.25;;;;;;;;;;5013528;28;20022;-67
2021/08/05 05:27:26;;;;;;;2.65;2.08;;;;;;;;;;5013562;28;20030;-67
2021/08/05 05:29:55;;;;;;;2.65;2.35;;;;;;;;;;5012458;28;20021;-68
2021/08/05 05:32:22;;;;;;;8.13;2.55;;;;;;;;;;5013418;28;20105;-67
2021/08/05 05:34:48;;;;;;;2.63;2.30;;;;;;;;;;5013333;28;20022;-67
2021/08/05 05:37:14;;;;;;;3.90;2.20;;;;;;;;;;5013423;28;20026;-68
2021/08/05 05:39:40;;;;;;;9.13;2.95;;;;;;;;;;5013517;28;20069;-67
2021/08/05 05:42:06;;;;;;;3.60;2.50;;;;;;;;;;4998958;28;20419;-67
2021/08/05 05:44:33;;;;;;;5.22;2.40;;;;;;;;;;5032822;28;20022;-67
2021/08/05 05:46:59;;;;;;;5.03;2.40;;;;;;;;;;5032874;28;20029;-68
2021/08/05 05:49:25;;;;;;;4.78;2.60;;;;;;;;;;5033031;28;20026;-68
2021/08/05 05:51:51;;;;;;;2.10;1.88;;;;;;;;;;5032854;28;20021;-68
2021/08/05 05:54:17;;;;;;;4.30;2.60;;;;;;;;;;5032852;28;20021;-68
2021/08/05 05:56:43;;;;;;;4.35;2.47;;;;;;;;;;5032813;28;20080;-68
2021/08/05 05:59:09;;;;;;;7.50;2.80;;;;;;;;;;5032780;28;20028;-68
2021/08/05 06:01:36;;;;;;;4.45;2.63;;;;;;;;;;5032049;28;20105;-68
2021/08/05 06:04:02;;;;;;;5.22;2.60;;;;;;;;;;5016643;28;20500;-67
2021/08/05 06:06:28;;;;;;;4.55;2.30;;;;;;;;;;5011111;28;20034;-68
2021/08/05 06:08:56;;;;;;;3.20;2.97;;;;;;;;;;5011275;28;20080;-67
2021/08/05 06:11:26;;;;;;;3.83;2.40;;;;;;;;;;5012261;28;20028;-68
2021/08/05 06:13:52;;;;;;;5.53;2.50;;;;;;;;;;5011697;28;20468;-67
2021/08/05 06:16:18;;;;;;;4.32;2.28;;;;;;;;;;5011998;28;20026;-68
2021/08/05 06:18:44;;;;;;;3.60;2.05;;;;;;;;;;5012118;28;20029;-68
2021/08/05 06:21:11;;;;;;;5.28;2.20;;;;;;;;;;5012984;28;20453;-68
2021/08/05 06:23:37;;;;;;;4.32;2.10;;;;;;;;;;5012761;28;20029;-68
2021/08/05 06:26:03;;;;;;;4.10;2.25;;;;;;;;;;5012593;28;20030;-67
2021/08/05 06:28:33;;;;;;;5.60;2.10;;;;;;;;;;5012684;28;20026;-67
2021/08/05 06:30:59;;;;;;;3.30;2.00;;;;;;;;;;5012838;28;20105;-67
2021/08/05 06:33:25;;;;;;;4.95;2.00;;;;;;;;;;5012603;28;20026;-68
2021/08/05 06:35:51;;;;;;;2.45;1.80;;;;;;;;;;5012672;28;20484;-68
2021/08/05 06:38:17;;;;;;;2.30;1.90;;;;;;;;;;5012584;28;20558;-68
2021/08/05 06:40:43;;;;;;;3.17;1.88;;;;;;;;;;5013750;28;20109;-68
2021/08/05 06:43:09;;;;;;;1.67;1.58;;;;;;;;;;5016353;28;20022;-67
2021/08/05 06:45:36;;;;;;;2.05;1.70;;;;;;;;;;5016613;28;20109;-68
2021/08/05 06:48:02;;;;;;;4.20;1.75;;;;;;;;;;5016570;28;20026;-68
2021/08/05 06:50:28;;;;;;;4.57;2.22;;;;;;;;;;5016551;28;20029;-67
2021/08/05 06:52:54;;;;;;;5.65;1.67;;;;;;;;;;4998776;28;20026;-68
2021/08/05 06:55:20;;;;;;;2.10;1.70;;;;;;;;;;5016353;28;20133;-67
2021/08/05 06:57:46;;;;;;;3.95;1.90;;;;;;;;;;5016275;28;20026;-68
2021/08/05 07:00:13;;;;;;;7.22;1.70;;;;;;;;;;5017457;28;21130;-68
2021/08/05 07:02:40;;;;;;;2.25;1.50;;;;;;;;;;5018301;28;20084;-68
2021/08/05 07:05:09;;;;;;;2.70;1.50;;;;;;;;;;4995066;28;20049;-69
2021/08/05 07:07:35;;;;;;;2.80;1.50;;;;;;;;;;5012027;28;20061;-68
2021/08/05 07:10:02;;;;;;;2.88;2.15;;;;;;;;;;5011861;28;20029;-68
2021/08/05 07:12:28;;;;;;;1.80;1.55;;;;;;;;;;5012832;28;20037;-67
2021/08/05 07:14:54;;;;;;;2.30;1.45;;;;;;;;;;5012742;28;20101;-65
2021/08/05 07:17:20;;;;;;;1.60;1.50;;;;;;;;;;5015804;28;20042;-68
2021/08/05 07:19:47;;;;;;;1.42;1.33;;;;;;;;;;5012986;28;20103;-68
2021/08/05 07:22:13;;;;;;;2.13;1.40;;;;;;;;;;5027107;28;20182;-67
2021/08/05 07:24:39;;;;;;;1.20;1.10;;;;;;;;;;5026173;28;20593;-68
2021/08/05 07:27:06;;;;;;;0.93;0.93;;;;;;;;;;5016384;28;20095;-67
2021/08/05 07:29:32;;;;;;;1.55;1.20;;;;;;;;;;5010955;28;20431;-67
2021/08/05 07:32:04;;;;;;;1.25;1.10;;;;;;;;;;5025981;28;20034;-68
2021/08/05 07:34:30;;;;;;;2.60;1.50;;;;;;;;;;5016587;28;20017;-67
2021/08/05 07:36:56;;;;;;;1.10;1.10;;;;;;;;;;5025926;28;20826;-68
2021/08/05 07:39:22;;;;;;;1.58;0.75;;;;;;;;;;5021885;28;20060;-67
2021/08/05 07:41:48;;;;;;;0.90;0.90;;;;;;;;;;5028092;28;20033;-66
2021/08/05 07:44:14;;;;;;;1.08;1.00;;;;;;;;;;5031113;28;20103;-66
2021/08/05 07:46:42;;;;;;;1.00;1.00;;;;;;;;;;5008082;28;20041;-67
2021/08/05 07:49:09;;;;;;;2.63;1.20;;;;;;;;;;5014350;28;20025;-67
2021/08/05 07:51:35;;;;;;;1.15;1.05;;;;;;;;;;5026145;28;20022;-67
2021/08/05 07:54:01;;;;;;;0.77;0.77;;;;;;;;;;5015147;28;20038;-67
2021/08/05 07:56:27;;;;;;;1.00;1.00;;;;;;;;;;5030257;28;20052;-68
2021/08/05 07:58:53;;;;;;;0.82;0.82;;;;;;;;;;5000089;28;20468;-67
2021/08/05 08:01:19;;;;;;;0.82;0.82;;;;;;;;;;5019361;28;20029;-68
2021/08/05 08:03:45;;;;;;;1.38;1.27;;;;;;;;;;5028090;28;20049;-68
2021/08/05 08:06:11;;;;;;;2.70;1.00;;;;;;;;;;5026008;28;20803;-68
2021/08/05 08:08:38;;;;;;;2.35;0.90;;;;;;;;;;5024655;28;20036;-67
2021/08/05 08:11:04;;;;;;;0.80;0.80;;;;;;;;;;5023491;28;20022;-67
2021/08/05 08:13:31;;;;;;;0.88;0.88;;;;;;;;;;5018999;28;20521;-68
2021/08/05 08:15:57;;;;;;;0.70;0.70;;;;;;;;;;5019468;28;20277;-67
2021/08/05 08:18:23;;;;;;;1.65;1.15;;;;;;;;;;5012884;28;20029;-68
2021/08/05 08:20:50;;;;;;;1.23;1.15;;;;;;;;;;5010638;28;20103;-68
2021/08/05 08:23:16;;;;;;;0.80;0.80;;;;;;;;;;5026650;28;20120;-67
2021/08/05 08:25:43;;;;;;;1.25;1.00;;;;;;;;;;5017832;28;20481;-67
2021/08/05 08:28:09;;;;;;;0.80;0.80;;;;;;;;;;5014971;28;20033;-68
2021/08/05 08:30:36;;;;;;;2.65;1.20;;;;;;;;;;5015171;28;20026;-67
2021/08/05 08:33:03;;;;;;;1.30;1.30;;;;;;;;;;5009753;28;20028;-67
2021/08/05 08:35:29;;;;;;;1.08;1.05;;;;;;;;;;5029644;28;20105;-69
2021/08/05 08:37:55;;;;;;;1.08;0.98;;;;;;;;;;5029751;28;20061;-69
2021/08/05 08:40:22;;;;;;;1.13;1.00;;;;;;;;;;5018359;28;20041;-69
2021/08/05 08:42:49;;;;;;;2.08;0.90;;;;;;;;;;5009846;28;20500;-67
2021/08/05 08:45:16;;;;;;;0.73;0.73;;;;;;;;;;5027320;28;20040;-68
2021/08/05 08:47:45;;;;;;;0.77;0.77;;;;;;;;;;5029238;28;20079;-69
2021/08/05 08:50:12;;;;;;;0.73;0.73;;;;;;;;;;5024069;28;20022;-68
2021/08/05 08:52:40;;;;;;;1.20;1.10;;;;;;;;;;5019694;28;20719;-67
2021/08/05 08:55:06;;;;;;;2.13;0.90;;;;;;;;;;5028539;28;20026;-67
2021/08/05 08:57:34;;;;;;;1.10;1.10;;;;;;;;;;5026985;28;20033;-67
2021/08/05 09:00:02;;;;;;;1.98;1.20;;;;;;;;;;5010757;28;20096;-67
2021/08/05 09:02:35;;;;;;;1.38;1.13;;;;;;;;;;5024111;28;20084;-66
2021/08/05 09:05:03;;;;;;;3.47;1.50;;;;;;;;;;5012312;28;20226;-67
2021/08/05 09:07:29;;;;;;;1.35;1.15;;;;;;;;;;5016124;28;20044;-67
2021/08/05 09:09:57;;;;;;;1.65;1.00;;;;;;;;;;5019346;28;20103;-67
2021/08/05 09:12:23;;;;;;;1.17;1.08;;;;;;;;;;5017641;28;20060;-67
2021/08/05 09:14:50;;;;;;;3.60;1.52;;;;;;;;;;5029596;28;20035;-67
2021/08/05 09:17:25;;;;;;;1.17;1.10;;;;;;;;;;5012742;28;20036;-67
2021/08/05 09:19:53;;;;;;;2.15;1.23;;;;;;;;;;5015626;28;20751;-67
2021/08/05 09:22:39;;;;;;;1.15;1.05;;;;;;;;;;5020736;28;20514;-68
2021/08/05 09:25:24;;;;;;;2.25;1.98;;;;;;;;;;5010855;28;20041;-67
2021/08/05 09:27:51;;;;;;;1.70;1.10;;;;;;;;;;5010646;28;20048;-68
2021/08/05 09:30:47;;;;;;;1.92;1.30;;;;;;;;;;5029802;28;20510;-70
2021/08/05 09:33:17;;;;;;;1.23;1.13;;;;;;;;;;5010640;28;20042;-68
2021/08/05 09:35:44;;;;;;;1.65;1.23;;;;;;;;;;5009326;28;20029;-68
2021/08/05 09:38:20;;;;;;;2.78;1.13;;;;;;;;;;5010204;28;20030;-68
2021/08/05 09:40:50;;;;;;;1.58;1.40;;;;;;;;;;5009918;28;20384;-67
2021/08/05 09:43:26;;;;;;;1.60;1.35;;;;;;;;;;5010455;28;20477;-67
2021/08/05 09:45:52;;;;;;;3.13;1.20;;;;;;;;;;5014378;28;20053;-66
2021/08/05 09:48:38;;;;;;;2.72;1.20;;;;;;;;;;5017712;28;20105;-69
2021/08/05 09:51:09;;;;;;;1.10;1.00;;;;;;;;;;4991370;28;20053;-69
2021/08/05 09:53:35;;;;;;;1.50;1.00;;;;;;;;;;5016382;28;20037;-70
2021/08/05 09:56:11;;;;;;;1.92;0.60;;;;;;;;;;5022566;28;20039;-69
2021/08/05 09:58:39;;;;;;;1.02;1.02;;;;;;;;;;5019556;28;20163;-67
2021/08/05 10:01:08;;;;;;;2.35;1.13;;;;;;;;;;5012595;28;20021;-68
2021/08/05 10:03:35;;;;;;;0.80;0.80;;;;;;;;;;5008662;28;20128;-68
2021/08/05 10:06:06;;;;;;;0.70;0.70;;;;;;;;;;5024868;28;20033;-68
2021/08/05 10:08:33;;;;;;;1.27;0.73;;;;;;;;;;5010728;28;20055;-67
2021/08/05 10:10:59;;;;;;;1.30;0.80;;;;;;;;;;5009170;28;20512;-67
2021/08/05 10:13:28;;;;;;;0.70;0.70;;;;;;;;;;4990772;28;20481;-68
2021/08/05 10:15:55;;;;;;;0.50;0.50;;;;;;;;;;5023298;28;20576;-67
2021/08/05 10:18:21;;;;;;;1.65;0.90;;;;;;;;;;5028086;28;20037;-68
2021/08/05 10:20:48;;;;;;;0.85;0.85;;;;;;;;;;5028906;28;20057;-66
2021/08/05 10:23:14;;;;;;;0.60;0.60;;;;;;;;;;5028338;28;20033;-66
2021/08/05 10:25:42;;;;;;;0.90;0.90;;;;;;;;;;5028405;28;20029;-68
2021/08/05 10:28:09;;;;;;;0.80;0.80;;;;;;;;;;5028590;28;20033;-66
2021/08/05 10:30:37;;;;;;;0.70;0.70;;;;;;;;;;5028952;28;20025;-68
2021/08/05 10:33:04;;;;;;;0.60;0.60;;;;;;;;;;5028168;28;20029;-67
2021/08/05 10:35:30;;;;;;;0.60;0.60;;;;;;;;;;5028214;28;20049;-68
2021/08/05 10:37:56;;;;;;;0.68;0.68;;;;;;;;;;5016419;28;20084;-68
2021/08/05 10:40:23;;;;;;;0.70;0.70;;;;;;;;;;5008377;28;20026;-68
2021/08/05 10:42:49;;;;;;;0.80;0.80;;;;;;;;;;5008508;28;20026;-67
2021/08/05 10:45:18;;;;;;;1.30;1.20;;;;;;;;;;5013567;28;20220;-67
2021/08/05 10:47:46;;;;;;;1.40;0.93;;;;;;;;;;5026578;28;20021;-68
2021/08/05 10:50:13;;;;;;;1.00;1.00;;;;;;;;;;5008120;28;20057;-68
2021/08/05 10:52:41;;;;;;;0.90;0.90;;;;;;;;;;5008310;28;20503;-67
2021/08/05 10:55:16;;;;;;;1.10;1.10;;;;;;;;;;5008608;28;20022;-67
2021/08/05 10:57:42;;;;;;;1.05;1.02;;;;;;;;;;5023767;28;20061;-68
2021/08/05 11:00:13;;;;;;;1.90;1.30;;;;;;;;;;5027501;28;20100;-67
2021/08/05 11:02:44;;;;;;;1.42;1.10;;;;;;;;;;5014900;28;20058;-67
2021/08/05 11:05:10;;;;;;;2.13;1.30;;;;;;;;;;5007928;28;20037;-67
2021/08/05 11:07:36;;;;;;;2.25;1.38;;;;;;;;;;5008127;28;20029;-68
2021/08/05 11:10:12;;;;;;;1.92;1.60;;;;;;;;;;5007517;28;20053;-68
2021/08/05 11:12:46;;;;;;;2.88;1.50;;;;;;;;;;5008260;28;20026;-68
2021/08/05 11:15:29;;;;;;;2.75;1.77;;;;;;;;;;5010160;28;20026;-68
2021/08/05 11:18:16;;;;;;;1.70;1.50;;;;;;;;;;5008171;28;20055;-69
2021/08/05 11:20:44;;;;;;;2.13;1.52;;;;;;;;;;5024187;28;20041;-70
2021/08/05 11:25:56;;;;;;;1.60;1.50;;;;;;;;;;5027243;28;20060;-69
2021/08/05 11:28:24;;;;;;;1.67;1.35;;;;;;;;;;5030858;28;20033;-71
2021/08/05 11:30:51;;;;;;;1.38;1.27;;;;;;;;;;5015075;28;20029;-69
2021/08/05 11:33:36;;;;;;;2.17;1.60;;;;;;;;;;5010926;28;20485;-69
2021/08/05 11:36:46;;;;;;;1.40;1.30;;;;;;;;;;5011012;28;20040;-68
2021/08/05 11:39:15;;;;;;;1.88;1.58;;;;;;;;;;5011097;28;20299;-70
2021/08/05 11:41:52;;;;;;;1.65;1.55;;;;;;;;;;5018416;28;20041;-69
2021/08/05 11:44:21;;;;;;;1.98;1.60;;;;;;;;;;5010454;28;20049;-69
2021/08/05 11:46:49;;;;;;;2.22;1.70;;;;;;;;;;5011303;28;20682;-69
2021/08/05 11:49:31;;;;;;;4.05;1.70;;;;;;;;;;5028656;28;20025;-70
2021/08/05 11:51:58;;;;;;;2.47;1.92;;;;;;;;;;5014853;28;20528;-69
2021/08/05 11:54:24;;;;;;;2.58;1.98;;;;;;;;;;5024684;28;20025;-69
2021/08/05 11:57:04;;;;;;;5.80;2.35;;;;;;;;;;5012446;28;20084;-70
2021/08/05 11:59:44;;;;;;;3.22;1.92;;;;;;;;;;5020700;28;20041;-73
2021/08/05 12:02:11;;;;;;;1.92;1.65;;;;;;;;;;5029898;28;20029;-69
2021/08/05 12:04:38;;;;;;;2.30;1.88;;;;;;;;;;5030894;28;20117;-69
2021/08/05 12:07:20;;;;;;;5.38;2.10;;;;;;;;;;5013202;28;20053;-69
2021/08/05 12:09:54;;;;;;;3.25;1.92;;;;;;;;;;5030737;28;20021;-69
2021/08/05 12:12:20;;;;;;;3.67;2.10;;;;;;;;;;5031524;28;20656;-69
2021/08/05 12:14:47;;;;;;;3.95;1.85;;;;;;;;;;5030959;28;20033;-68
2021/08/05 12:17:13;;;;;;;4.28;2.30;;;;;;;;;;5031490;28;20109;-69
2021/08/05 12:19:47;;;;;;;3.85;2.10;;;;;;;;;;5031176;28;20096;-69
2021/08/05 12:22:13;;;;;;;4.50;2.20;;;;;;;;;;5031776;28;20334;-69
2021/08/05 12:24:45;;;;;;;5.28;2.40;;;;;;;;;;5031020;28;20025;-68
2021/08/05 12:27:15;;;;;;;5.95;2.10;;;;;;;;;;5030356;28;20663;-69
2021/08/05 12:29:42;;;;;;;4.55;2.20;;;;;;;;;;5031021;28;20052;-69
2021/08/05 12:32:08;;;;;;;5.63;2.22;;;;;;;;;;5031183;28;20021;-69
2021/08/05 12:34:34;;;;;;;6.45;2.22;;;;;;;;;;5031008;28;20022;-69
2021/08/05 12:37:13;;;;;;;3.72;2.45;;;;;;;;;;5022410;28;20065;-70
2021/08/05 12:39:39;;;;;;;5.45;2.60;;;;;;;;;;5027880;28;20037;-69
2021/08/05 12:42:06;;;;;;;3.50;2.20;;;;;;;;;;5021490;28;20420;-69
2021/08/05 12:44:33;;;;;;;4.72;2.15;;;;;;;;;;5027558;28;20099;-68
2021/08/05 12:46:59;;;;;;;3.38;2.28;;;;;;;;;;5027374;28;20025;-68
2021/08/05 12:49:34;;;;;;;10.02;3.55;;;;;;;;;;5010406;28;20026;-68
2021/08/05 12:52:01;;;;;;;6.28;2.60;;;;;;;;;;5014366;28;20056;-70
2021/08/05 12:54:27;;;;;;;5.00;2.30;;;;;;;;;;5011218;28;20392;-69
2021/08/05 12:56:57;;;;;;;3.65;2.15;;;;;;;;;;5030452;28;20034;-68
2021/08/05 12:59:27;;;;;;;5.55;2.03;;;;;;;;;;5026514;28;20069;-68
2021/08/05 13:02:03;;;;;;;4.03;1.70;;;;;;;;;;4998755;28;20076;-68
2021/08/05 13:04:32;;;;;;;7.97;2.30;;;;;;;;;;5018370;28;20053;-72
2021/08/05 13:06:59;;;;;;;3.47;2.22;;;;;;;;;;5012891;28;20033;-68
2021/08/05 13:09:25;;;;;;;4.63;2.20;;;;;;;;;;5013500;28;20033;-68
2021/08/05 13:11:52;;;;;;;8.85;2.47;;;;;;;;;;5020449;28;20030;-69
2021/08/05 13:14:27;;;;;;;3.58;2.10;;;;;;;;;;5026072;28;20022;-72
2021/08/05 13:16:53;;;;;;;;;;;;;;;;;;5009824;28;20448;-69
2021/08/05 13:19:19;;;;;;;4.07;1.90;;;;;;;;;;5009469;28;19917;-69
2021/08/05 13:21:46;;;;;;;4.30;2.20;;;;;;;;;;5015626;28;20093;-68
2021/08/05 13:24:20;;;;;;;3.88;2.15;;;;;;;;;;5023883;28;20448;-66
2021/08/05 13:26:48;;;;;;;6.45;2.10;;;;;;;;;;5028190;28;20041;-66
2021/08/05 13:29:32;;;;;;;3.13;2.20;;;;;;;;;;5030506;28;20423;-66
2021/08/05 13:31:59;;;;;;;3.45;2.25;;;;;;;;;;5030296;28;20101;-65
2021/08/05 13:34:25;;;;;;;3.33;2.10;;;;;;;;;;5029346;28;20097;-67
2021/08/05 13:36:51;;;;;;;4.30;2.45;;;;;;;;;;4991835;28;20045;-66
2021/08/05 13:39:17;;;;;;;3.65;2.20;;;;;;;;;;5010667;28;20029;-68
2021/08/05 13:41:44;;;;;;;2.10;1.90;;;;;;;;;;5029146;28;20578;-66
2021/08/05 13:44:10;;;;;;;2.50;2.15;;;;;;;;;;5029202;28;20496;-67
2021/08/05 13:46:36;;;;;;;2.40;2.20;;;;;;;;;;5011177;28;20037;-68
2021/08/05 13:49:03;;;;;;;3.47;2.20;;;;;;;;;;5009391;28;20022;-68
2021/08/05 13:51:29;;;;;;;2.50;2.25;;;;;;;;;;5007829;28;20029;-68
2021/08/05 13:53:55;;;;;;;3.58;2.50;;;;;;;;;;5007594;28;20022;-69
2021/08/05 13:56:21;;;;;;;3.30;2.45;;;;;;;;;;5017557;28;20038;-68
2021/08/05 13:58:51;;;;;;;2.25;1.80;;;;;;;;;;5016800;28;20035;-68
2021/08/05 14:01:17;;;;;;;4.68;1.85;;;;;;;;;;5022926;28;20049;-67
2021/08/05 14:03:43;;;;;;;3.60;2.28;;;;;;;;;;4990283;28;20128;-68
2021/08/05 14:06:09;;;;;;;2.83;1.90;;;;;;;;;;4990661;28;20528;-68
2021/08/05 14:08:35;;;;;;;2.97;1.80;;;;;;;;;;5007948;28;20025;-67
2021/08/05 14:11:01;;;;;;;3.05;1.95;;;;;;;;;;5007856;28;20040;-68
2021/08/05 14:13:27;;;;;;;2.85;2.15;;;;;;;;;;5007968;28;20036;-68
2021/08/05 14:15:54;;;;;;;3.42;1.92;;;;;;;;;;4998145;28;20030;-67
2021/08/05 14:18:20;;;;;;;3.00;2.63;;;;;;;;;;5009336;28;20030;-67
2021/08/05 14:20:49;;;;;;;2.90;1.90;;;;;;;;;;5008477;28;20524;-68
2021/08/05 14:23:15;;;;;;;2.85;2.10;;;;;;;;;;5008208;28;20033;-68
2021/08/05 14:25:41;;;;;;;2.80;1.90;;;;;;;;;;5008414;28;20427;-67
2021/08/05 14:28:08;;;;;;;3.72;2.10;;;;;;;;;;5008474;28;20041;-67
2021/08/05 14:30:34;;;;;;;3.33;2.20;;;;;;;;;;5028067;28;20017;-68
2021/08/05 14:33:00;;;;;;;2.80;2.15;;;;;;;;;;5027402;28;20519;-67
2021/08/05 14:35:26;;;;;;;4.43;2.03;;;;;;;;;;5016555;28;20113;-68
2021/08/05 14:37:52;;;;;;;2.80;2.20;;;;;;;;;;5014566;28;20118;-67
2021/08/05 14:40:19;;;;;;;2.40;2.20;;;;;;;;;;5024879;28;20085;-67
2021/08/05 14:42:45;;;;;;;2.88;1.90;;;;;;;;;;5012083;28;20034;-68
2021/08/05 14:45:12;;;;;;;4.10;2.10;;;;;;;;;;5014785;28;20052;-68
2021/08/05 14:47:38;;;;;;;2.75;1.75;;;;;;;;;;5012476;28;20820;-68
2021/08/05 14:50:04;;;;;;;2.25;1.80;;;;;;;;;;5012653;28;20036;-68